createdAt,value
2019-05-18T00:00:46.782Z,74.80
2019-05-18T00:03:15.948Z,75.20
2019-05-18T00:05:45.104Z,75.80
2019-05-18T00:08:14.253Z,75.00
2019-05-18T00:10:43.399Z,75.10
2019-05-18T00:13:12.433Z,75.30
2019-05-18T00:15:41.478Z,75.40
2019-05-18T00:18:10.659Z,75.60
2019-05-18T00:20:39.739Z,76.40
2019-05-18T00:23:08.833Z,75.60
2019-05-18T00:25:37.902Z,75.80
2019-05-18T00:28:07.086Z,75.90
2019-05-18T00:30:36.179Z,76.00
2019-05-18T00:33:05.230Z,76.10
2019-05-18T00:35:34.316Z,76.20
2019-05-18T00:38:03.342Z,76.20
2019-05-18T00:40:32.348Z,76.30
2019-05-18T00:43:01.418Z,76.50
2019-05-18T00:45:30.436Z,76.50
2019-05-18T00:47:59.499Z,76.70
2019-05-18T00:50:28.554Z,76.80
2019-05-18T00:52:57.632Z,77.60
2019-05-18T00:55:26.669Z,76.90
2019-05-18T00:57:55.762Z,77.00
2019-05-18T01:00:24.795Z,77.10
2019-05-18T01:02:53.866Z,77.30
2019-05-18T01:05:22.904Z,77.30
2019-05-18T01:07:51.942Z,77.30
2019-05-18T01:10:21.030Z,77.40
2019-05-18T01:12:50.094Z,77.50
2019-05-18T01:15:19.191Z,77.50
2019-05-18T01:17:56.826Z,77.70
2019-05-18T01:20:18.965Z,77.90
2019-05-18T01:22:48.058Z,77.90
2019-05-18T01:25:17.105Z,78.00
2019-05-18T01:27:46.174Z,78.00
2019-05-18T01:30:15.231Z,78.20
2019-05-18T01:32:44.402Z,78.20
2019-05-18T01:35:13.488Z,78.30
2019-05-18T01:37:42.591Z,78.40
2019-05-18T01:40:11.618Z,78.50
2019-05-18T01:42:40.619Z,78.50
2019-05-18T01:45:28.907Z,78.70
2019-05-18T01:48:12.683Z,78.80
2019-05-18T01:50:28.665Z,78.70
2019-05-18T01:52:57.831Z,78.80
2019-05-18T01:55:26.905Z,78.90
2019-05-18T01:57:56.036Z,78.90
2019-05-18T02:00:25.139Z,79.00
2019-05-18T02:02:54.285Z,79.50
2019-05-18T02:05:23.368Z,79.20
2019-05-18T02:07:52.433Z,79.30
2019-05-18T02:10:21.494Z,79.40
2019-05-18T02:12:50.486Z,79.50
2019-05-18T02:15:19.484Z,79.70
2019-05-18T02:17:48.530Z,79.70
2019-05-18T02:20:17.569Z,79.70
2019-05-18T02:22:46.598Z,80.50
2019-05-18T02:25:15.654Z,79.80
2019-05-18T02:27:44.816Z,79.90
2019-05-18T02:30:17.363Z,80.10
2019-05-18T02:32:44.601Z,80.20
2019-05-18T02:35:13.606Z,80.20
2019-05-18T02:37:42.663Z,80.30
2019-05-18T02:40:11.703Z,80.30
2019-05-18T02:42:40.716Z,80.40
2019-05-18T02:45:09.761Z,81.20
2019-05-18T02:47:38.847Z,80.40
2019-05-18T02:50:11.054Z,80.40
2019-05-18T02:52:40.064Z,80.40
2019-05-18T02:55:09.062Z,80.40
2019-05-18T02:57:38.085Z,80.50
2019-05-18T03:00:08.122Z,80.40
2019-05-18T03:02:37.215Z,80.50
2019-05-18T03:05:06.309Z,80.70
2019-05-18T03:07:35.443Z,80.80
2019-05-18T03:10:04.654Z,80.90
2019-05-18T03:12:33.730Z,81.00
2019-05-18T03:15:02.741Z,81.10
2019-05-18T03:17:31.786Z,81.10
2019-05-18T03:20:00.943Z,81.20
2019-05-18T03:22:29.984Z,81.20
2019-05-18T03:24:59.080Z,81.30
2019-05-18T03:27:28.152Z,81.30
2019-05-18T03:29:57.207Z,81.30
2019-05-18T03:32:26.206Z,81.30
2019-05-18T03:34:55.236Z,81.30
2019-05-18T03:37:24.393Z,81.40
2019-05-18T03:39:53.406Z,81.70
2019-05-18T03:42:22.499Z,81.70
2019-05-18T03:44:51.627Z,81.90
2019-05-18T03:47:20.651Z,81.90
2019-05-18T03:49:49.802Z,81.80
2019-05-18T03:52:18.884Z,81.80
2019-05-18T03:55:08.104Z,82.00
2019-05-18T03:57:37.264Z,82.20
2019-05-18T04:00:06.683Z,82.00
2019-05-18T04:02:35.719Z,82.10
2019-05-18T04:05:06.250Z,82.80
2019-05-18T04:07:35.277Z,82.30
2019-05-18T04:10:04.465Z,82.40
2019-05-18T04:12:33.509Z,82.50
2019-05-18T04:15:02.604Z,82.60
2019-05-18T04:17:31.670Z,82.60
2019-05-18T04:20:00.728Z,82.60
2019-05-18T04:22:29.770Z,82.70
2019-05-18T04:24:58.815Z,82.70
2019-05-18T04:27:27.848Z,82.80
2019-05-18T04:29:56.889Z,82.80
2019-05-18T04:32:26.070Z,82.80
2019-05-18T04:34:55.052Z,82.80
2019-05-18T04:37:24.211Z,82.90
2019-05-18T04:39:53.275Z,82.90
2019-05-18T04:42:22.275Z,82.90
2019-05-18T04:44:51.318Z,83.00
2019-05-18T04:47:20.355Z,83.00
2019-05-18T04:50:04.676Z,83.10
2019-05-18T04:52:20.110Z,83.00
2019-05-18T04:54:49.143Z,83.10
2019-05-18T04:57:18.081Z,83.00
2019-05-18T04:59:47.136Z,83.10
2019-05-18T05:02:16.201Z,83.10
2019-05-18T05:04:45.279Z,83.10
2019-05-18T05:07:14.339Z,82.60
2019-05-18T05:09:43.403Z,83.00
2019-05-18T05:12:12.479Z,83.00
2019-05-18T05:15:00.686Z,83.00
2019-05-18T05:17:29.792Z,82.90
2019-05-18T05:19:58.877Z,82.90
2019-05-18T05:22:27.934Z,82.80
2019-05-18T05:24:58.452Z,82.90
2019-05-18T05:27:27.486Z,83.00
2019-05-18T05:29:56.535Z,82.90
2019-05-18T05:32:25.590Z,83.00
2019-05-18T05:34:54.664Z,83.10
2019-05-18T05:37:23.680Z,83.10
2019-05-18T05:39:52.718Z,83.10
2019-05-18T05:42:21.802Z,83.00
2019-05-18T05:44:55.425Z,83.00
2019-05-18T05:47:24.473Z,83.10
2019-05-18T05:49:53.470Z,83.30
2019-05-18T05:52:22.461Z,83.10
2019-05-18T05:54:52.119Z,83.20
2019-05-18T05:57:21.198Z,83.30
2019-05-18T05:59:50.263Z,83.30
2019-05-18T06:02:19.422Z,83.30
2019-05-18T06:04:48.459Z,83.30
2019-05-18T06:07:17.559Z,83.30
2019-05-18T06:09:46.631Z,83.30
2019-05-18T06:12:15.660Z,84.00
2019-05-18T06:14:44.702Z,83.10
2019-05-18T06:17:13.760Z,83.00
2019-05-18T06:19:42.830Z,83.00
2019-05-18T06:22:11.906Z,82.90
2019-05-18T06:24:41.006Z,82.80
2019-05-18T06:27:10.100Z,82.80
2019-05-18T06:29:39.129Z,82.60
2019-05-18T06:32:08.203Z,82.40
2019-05-18T06:34:37.243Z,82.30
2019-05-18T06:37:06.341Z,82.30
2019-05-18T06:39:35.357Z,82.10
2019-05-18T06:42:04.348Z,82.00
2019-05-18T06:44:33.370Z,81.80
2019-05-18T06:47:02.464Z,82.50
2019-05-18T06:49:31.512Z,81.50
2019-05-18T06:52:00.539Z,81.40
2019-05-18T06:54:29.636Z,81.20
2019-05-18T06:56:58.653Z,80.90
2019-05-18T06:59:27.689Z,80.70
2019-05-18T07:01:56.711Z,80.50
2019-05-18T07:04:25.783Z,80.20
2019-05-18T07:06:54.835Z,80.00
2019-05-18T07:09:23.805Z,79.80
2019-05-18T07:11:56.027Z,79.50
2019-05-18T07:14:25.833Z,79.20
2019-05-18T07:16:54.238Z,78.80
2019-05-18T07:19:23.314Z,78.50
2019-05-18T07:21:52.563Z,78.10
2019-05-18T07:24:21.714Z,77.80
2019-05-18T07:26:50.766Z,77.30
2019-05-18T07:29:19.798Z,76.90
2019-05-18T07:31:48.850Z,76.50
2019-05-18T07:34:17.884Z,76.20
2019-05-18T07:36:46.954Z,75.80
2019-05-18T07:39:15.998Z,75.40
2019-05-18T07:41:47.134Z,74.90
2019-05-18T07:44:15.718Z,74.40
2019-05-18T07:46:44.729Z,73.80
2019-05-18T07:49:13.789Z,73.20
2019-05-18T07:51:42.834Z,72.70
2019-05-18T07:54:11.842Z,72.00
2019-05-18T07:56:40.844Z,71.40
2019-05-18T07:59:09.875Z,70.70
2019-05-18T08:01:39.045Z,70.20
2019-05-18T08:04:08.136Z,69.20
2019-05-18T08:06:37.194Z,68.00
2019-05-18T08:09:07.479Z,66.40
2019-05-18T08:11:36.511Z,64.50
2019-05-18T08:14:05.634Z,62.10
2019-05-18T08:16:34.685Z,59.70
2019-05-18T08:19:03.747Z,57.90
2019-05-18T08:21:32.824Z,56.40
2019-05-18T08:24:01.943Z,54.70
2019-05-18T08:26:30.982Z,53.20
2019-05-18T08:29:00.039Z,51.80
2019-05-18T08:31:29.113Z,50.30
2019-05-18T08:33:58.288Z,48.90
2019-05-18T08:36:27.457Z,47.60
2019-05-18T08:38:56.639Z,46.60
2019-05-18T08:41:25.766Z,45.70
2019-05-18T08:43:54.862Z,45.50
2019-05-18T08:46:23.935Z,45.80
2019-05-18T08:48:53.115Z,46.40
2019-05-18T08:51:22.197Z,46.10
2019-05-18T08:53:51.429Z,46.40
2019-05-18T08:56:20.559Z,47.00
2019-05-18T08:58:49.596Z,46.70
2019-05-18T09:01:18.718Z,46.90
2019-05-18T09:03:47.938Z,47.20
2019-05-18T09:06:17.020Z,46.40
2019-05-18T09:08:46.136Z,46.20
2019-05-18T09:11:15.190Z,46.00
2019-05-18T09:13:44.293Z,45.90
2019-05-18T09:16:13.383Z,44.60
2019-05-18T09:18:42.502Z,44.10
2019-05-18T09:21:11.638Z,43.80
2019-05-18T09:23:40.789Z,43.40
2019-05-18T09:26:09.855Z,43.30
2019-05-18T09:28:39.006Z,43.00
2019-05-18T09:31:08.179Z,42.60
2019-05-18T09:33:37.329Z,42.40
2019-05-18T09:36:06.430Z,42.30
2019-05-18T09:38:35.586Z,42.20
2019-05-18T09:41:04.664Z,42.20
2019-05-18T09:43:33.739Z,42.20
2019-05-18T09:46:02.744Z,42.30
2019-05-18T09:48:31.886Z,42.50
2019-05-18T09:51:01.016Z,42.60
2019-05-18T09:53:30.258Z,42.80
2019-05-18T09:55:59.433Z,42.70
2019-05-18T09:58:28.522Z,42.80
2019-05-18T10:00:57.646Z,42.90
2019-05-18T10:03:26.732Z,43.00
2019-05-18T10:05:55.798Z,43.00
2019-05-18T10:08:24.907Z,43.00
2019-05-18T10:10:54.016Z,42.70
2019-05-18T10:13:23.116Z,42.60
2019-05-18T10:15:52.272Z,42.50
2019-05-18T10:18:21.901Z,42.40
2019-05-18T10:20:51.036Z,42.30
2019-05-18T10:23:20.149Z,42.20
2019-05-18T10:25:49.226Z,42.10
2019-05-18T10:28:19.663Z,42.10
2019-05-18T10:30:48.861Z,42.00
2019-05-18T10:33:17.958Z,41.90
2019-05-18T10:35:47.102Z,41.90
2019-05-18T10:38:16.207Z,41.90
2019-05-18T10:40:45.342Z,41.80
2019-05-18T10:43:14.401Z,41.80
2019-05-18T10:45:45.040Z,41.70
2019-05-18T10:48:14.512Z,41.60
2019-05-18T10:50:44.455Z,41.30
2019-05-18T10:53:27.845Z,41.00
2019-05-18T10:55:44.466Z,40.80
2019-05-18T10:58:13.534Z,40.50
2019-05-18T11:00:42.625Z,40.20
2019-05-18T11:03:11.753Z,40.10
2019-05-18T11:05:40.919Z,40.00
2019-05-18T11:08:10.117Z,39.90
2019-05-18T11:10:39.184Z,39.60
2019-05-18T11:13:08.242Z,39.40
2019-05-18T11:15:37.377Z,39.40
2019-05-18T11:18:06.503Z,39.20
2019-05-18T11:20:35.583Z,39.20
2019-05-18T11:23:04.678Z,39.00
2019-05-18T11:25:33.759Z,38.70
2019-05-18T11:28:02.770Z,38.70
2019-05-18T11:30:31.805Z,38.50
2019-05-18T11:33:00.870Z,38.40
2019-05-18T11:35:30.016Z,38.20
2019-05-18T11:37:59.134Z,38.00
2019-05-18T11:40:28.198Z,37.90
2019-05-18T11:42:57.195Z,37.90
2019-05-18T11:45:26.261Z,37.80
2019-05-18T11:47:55.358Z,37.80
2019-05-18T11:50:24.416Z,37.80
2019-05-18T11:52:53.563Z,37.40
2019-05-18T11:55:24.198Z,37.30
2019-05-18T11:57:53.352Z,36.90
2019-05-18T12:00:22.580Z,36.60
2019-05-18T12:02:51.652Z,36.50
2019-05-18T12:05:20.839Z,36.30
2019-05-18T12:07:50.038Z,36.20
2019-05-18T12:10:19.369Z,36.10
2019-05-18T12:12:48.588Z,35.90
2019-05-18T12:15:17.635Z,35.90
2019-05-18T12:17:46.779Z,35.80
2019-05-18T12:20:15.867Z,35.60
2019-05-18T12:22:45.050Z,35.70
2019-05-18T12:25:14.565Z,35.40
2019-05-18T12:27:43.645Z,35.10
2019-05-18T12:30:12.745Z,34.80
2019-05-18T12:32:41.910Z,34.60
2019-05-18T12:35:11.006Z,34.50
2019-05-18T12:37:40.057Z,34.40
2019-05-18T12:40:13.773Z,34.10
2019-05-18T12:42:42.826Z,34.00
2019-05-18T12:45:11.939Z,33.80
2019-05-18T12:47:42.487Z,33.80
2019-05-18T12:50:11.686Z,33.70
2019-05-18T12:52:40.804Z,33.50
2019-05-18T12:55:12.938Z,32.90
2019-05-18T12:57:43.148Z,33.10
2019-05-18T13:00:12.362Z,33.00
2019-05-18T13:02:41.522Z,32.80
2019-05-18T13:05:10.616Z,32.70
2019-05-18T13:07:39.791Z,32.70
2019-05-18T13:10:10.381Z,32.90
2019-05-18T13:12:39.441Z,33.00
2019-05-18T13:15:10.692Z,33.20
2019-05-18T13:17:39.834Z,33.40
2019-05-18T13:20:09.906Z,33.50
2019-05-18T13:22:38.979Z,33.40
2019-05-18T13:25:08.207Z,33.60
2019-05-18T13:27:39.803Z,33.60
2019-05-18T13:30:08.580Z,33.40
2019-05-18T13:32:37.679Z,33.30
2019-05-18T13:35:06.855Z,33.10
2019-05-18T13:37:35.967Z,32.80
2019-05-18T13:40:05.351Z,32.70
2019-05-18T13:42:34.519Z,32.70
2019-05-18T13:45:03.712Z,32.30
2019-05-18T13:47:32.835Z,32.10
2019-05-18T13:50:02.042Z,31.90
2019-05-18T13:52:31.123Z,31.80
2019-05-18T13:55:04.614Z,32.00
2019-05-18T13:57:31.095Z,32.10
2019-05-18T14:00:00.199Z,32.10
2019-05-18T14:02:29.275Z,32.10
2019-05-18T14:04:58.379Z,32.30
2019-05-18T14:07:27.481Z,33.10
2019-05-18T14:09:56.679Z,32.80
2019-05-18T14:12:25.731Z,32.70
2019-05-18T14:14:54.827Z,32.80
2019-05-18T14:17:24.031Z,33.10
2019-05-18T14:19:53.150Z,33.40
2019-05-18T14:22:22.248Z,33.90
2019-05-18T14:24:51.291Z,34.20
2019-05-18T14:27:20.430Z,34.30
2019-05-18T14:29:49.515Z,34.30
2019-05-18T14:32:18.631Z,34.30
2019-05-18T14:34:47.894Z,34.30
2019-05-18T14:37:17.059Z,34.30
2019-05-18T14:39:46.278Z,34.20
2019-05-18T14:42:15.422Z,34.00
2019-05-18T14:44:44.508Z,34.10
2019-05-18T14:47:13.638Z,34.00
2019-05-18T14:49:42.818Z,34.00
2019-05-18T14:52:12.398Z,34.00
2019-05-18T14:54:41.622Z,34.00
2019-05-18T14:57:10.967Z,34.00
2019-05-18T14:59:40.034Z,34.00
2019-05-18T15:02:09.115Z,34.00
2019-05-18T15:04:38.223Z,34.00
2019-05-18T15:07:09.405Z,33.90
2019-05-18T15:09:38.304Z,34.00
2019-05-18T15:12:07.411Z,34.00
2019-05-18T15:14:36.511Z,34.00
2019-05-18T15:17:05.598Z,34.00
2019-05-18T15:19:34.718Z,34.20
2019-05-18T15:22:04.007Z,34.10
2019-05-18T15:24:33.110Z,34.20
2019-05-18T15:27:02.230Z,34.30
2019-05-18T15:29:31.290Z,34.50
2019-05-18T15:32:00.558Z,34.40
2019-05-18T15:34:29.625Z,34.50
2019-05-18T15:36:59.641Z,34.50
2019-05-18T15:39:28.762Z,34.60
2019-05-18T15:41:57.917Z,34.80
2019-05-18T15:44:26.993Z,34.90
2019-05-18T15:46:58.820Z,34.90
2019-05-18T15:49:27.982Z,35.00
2019-05-18T15:51:57.078Z,35.20
2019-05-18T15:54:26.159Z,35.30
2019-05-18T15:56:55.254Z,35.30
2019-05-18T15:59:24.353Z,35.00
2019-05-18T16:01:53.538Z,35.10
2019-05-18T16:04:22.677Z,35.20
2019-05-18T16:06:51.838Z,35.30
2019-05-18T16:09:20.927Z,35.30
2019-05-18T16:11:50.075Z,35.30
2019-05-18T16:14:19.302Z,35.20
2019-05-18T16:16:48.620Z,35.20
2019-05-18T16:19:17.774Z,35.20
2019-05-18T16:21:46.895Z,35.20
2019-05-18T16:24:16.007Z,35.10
2019-05-18T16:26:45.056Z,35.20
2019-05-18T16:29:14.147Z,35.40
2019-05-18T16:31:43.333Z,35.60
2019-05-18T16:34:12.505Z,35.80
2019-05-18T16:36:41.611Z,36.00
2019-05-18T16:39:13.687Z,36.30
2019-05-18T16:41:42.846Z,36.30
2019-05-18T16:44:12.065Z,36.40
2019-05-18T16:46:41.177Z,36.60
2019-05-18T16:49:12.306Z,36.80
2019-05-18T16:51:41.470Z,36.80
2019-05-18T16:54:10.654Z,36.90
2019-05-18T16:56:39.708Z,37.00
2019-05-18T16:59:08.979Z,37.10
2019-05-18T17:01:38.084Z,37.30
2019-05-18T17:04:09.279Z,37.50
2019-05-18T17:06:38.059Z,37.60
2019-05-18T17:09:07.235Z,37.80
2019-05-18T17:11:36.347Z,38.00
2019-05-18T17:14:05.428Z,38.20
2019-05-18T17:16:34.574Z,38.40
2019-05-18T17:19:03.728Z,38.70
2019-05-18T17:21:32.980Z,39.00
2019-05-18T17:24:02.097Z,39.00
2019-05-18T17:26:31.348Z,39.20
2019-05-18T17:29:00.418Z,39.60
2019-05-18T17:31:29.596Z,39.70
2019-05-18T17:33:58.739Z,39.90
2019-05-18T17:36:27.947Z,40.10
2019-05-18T17:38:57.056Z,40.20
2019-05-18T17:41:26.209Z,40.30
2019-05-18T17:43:57.597Z,40.50
2019-05-18T17:46:26.403Z,40.70
2019-05-18T17:48:55.708Z,40.90
2019-05-18T17:51:24.919Z,41.20
2019-05-18T17:53:54.119Z,41.30
2019-05-18T17:56:23.231Z,41.50
2019-05-18T17:58:52.307Z,41.80
2019-05-18T18:01:21.422Z,42.00
2019-05-18T18:03:50.491Z,42.10
2019-05-18T18:06:19.624Z,42.30
2019-05-18T18:08:48.790Z,43.20
2019-05-18T18:11:17.830Z,42.70
2019-05-18T18:13:46.995Z,42.90
2019-05-18T18:16:16.123Z,43.00
2019-05-18T18:18:45.261Z,43.20
2019-05-18T18:21:14.300Z,43.30
2019-05-18T18:23:43.395Z,43.40
2019-05-18T18:26:12.491Z,43.50
2019-05-18T18:28:41.575Z,43.70
2019-05-18T18:31:10.685Z,43.90
2019-05-18T18:33:39.840Z,44.00
2019-05-18T18:36:09.019Z,44.10
2019-05-18T18:38:38.152Z,44.30
2019-05-18T18:41:07.338Z,44.50
2019-05-18T18:43:36.420Z,44.30
2019-05-18T18:46:05.478Z,44.90
2019-05-18T18:48:34.530Z,45.10
2019-05-18T18:51:03.562Z,45.30
2019-05-18T18:53:32.608Z,45.50
2019-05-18T18:56:01.714Z,45.60
2019-05-18T18:58:30.767Z,45.70
2019-05-18T19:00:59.799Z,45.90
2019-05-18T19:03:28.904Z,46.10
2019-05-18T19:05:58.023Z,46.20
2019-05-18T19:08:27.034Z,46.40
2019-05-18T19:10:56.036Z,46.70
2019-05-18T19:13:25.187Z,46.90
2019-05-18T19:15:54.262Z,47.20
2019-05-18T19:18:23.342Z,47.40
2019-05-18T19:20:52.385Z,47.60
2019-05-18T19:23:21.392Z,47.90
2019-05-18T19:25:50.448Z,48.10
2019-05-18T19:28:19.511Z,48.40
2019-05-18T19:30:48.647Z,48.70
2019-05-18T19:33:17.640Z,48.80
2019-05-18T19:35:46.734Z,49.00
2019-05-18T19:38:15.832Z,49.20
2019-05-18T19:40:45.362Z,49.40
2019-05-18T19:43:14.399Z,49.50
2019-05-18T19:45:43.482Z,49.80
2019-05-18T19:48:12.509Z,49.90
2019-05-18T19:50:41.674Z,50.10
2019-05-18T19:53:10.705Z,50.30
2019-05-18T19:55:39.723Z,50.40
2019-05-18T19:58:09.495Z,50.70
2019-05-18T20:00:38.564Z,51.00
2019-05-18T20:03:07.640Z,51.20
2019-05-18T20:05:36.706Z,51.40
2019-05-18T20:08:05.777Z,51.60
2019-05-18T20:10:34.817Z,51.90
2019-05-18T20:13:03.943Z,52.00
2019-05-18T20:15:33.035Z,52.40
2019-05-18T20:18:02.091Z,52.60
2019-05-18T20:20:31.148Z,52.90
2019-05-18T20:23:00.224Z,53.10
2019-05-18T20:25:29.308Z,53.40
2019-05-18T20:27:58.334Z,53.70
2019-05-18T20:30:27.495Z,53.80
2019-05-18T20:32:56.602Z,54.00
2019-05-18T20:35:25.990Z,54.20
2019-05-18T20:37:55.253Z,54.40
2019-05-18T20:40:24.439Z,54.60
2019-05-18T20:42:53.499Z,54.80
2019-05-18T20:45:22.624Z,55.00
2019-05-18T20:47:51.660Z,55.30
2019-05-18T20:50:20.798Z,55.40
2019-05-18T20:52:49.878Z,55.50
2019-05-18T20:55:18.900Z,55.80
2019-05-18T20:57:47.952Z,55.90
2019-05-18T21:00:17.097Z,56.10
2019-05-18T21:02:46.237Z,56.30
2019-05-18T21:05:15.658Z,56.40
2019-05-18T21:07:44.756Z,56.50
2019-05-18T21:10:13.856Z,56.70
2019-05-18T21:12:42.857Z,56.70
2019-05-18T21:15:11.869Z,56.80
2019-05-18T21:17:40.871Z,57.00
2019-05-18T21:20:09.964Z,57.10
2019-05-18T21:22:39.034Z,57.30
2019-05-18T21:25:08.188Z,57.40
2019-05-18T21:27:37.255Z,57.70
2019-05-18T21:30:06.451Z,57.80
2019-05-18T21:32:35.574Z,57.80
2019-05-18T21:35:04.821Z,58.60
2019-05-18T21:37:34.670Z,58.10
2019-05-18T21:40:05.390Z,58.20
2019-05-18T21:42:34.411Z,58.40
2019-05-18T21:45:03.433Z,58.50
2019-05-18T21:47:32.437Z,58.70
2019-05-18T21:50:01.633Z,58.70
2019-05-18T21:52:30.842Z,58.90
2019-05-18T21:54:59.892Z,59.00
2019-05-18T21:57:28.987Z,59.20
2019-05-18T21:59:58.016Z,59.30
2019-05-18T22:02:27.067Z,59.30
2019-05-18T22:04:56.088Z,59.40
2019-05-18T22:07:25.095Z,59.50
2019-05-18T22:09:54.090Z,59.50
2019-05-18T22:12:23.138Z,59.60
2019-05-18T22:14:52.237Z,59.80
2019-05-18T22:17:21.329Z,59.90
2019-05-18T22:19:50.342Z,60.20
2019-05-18T22:22:19.337Z,60.30
2019-05-18T22:24:48.355Z,60.50
2019-05-18T22:27:17.363Z,60.70
2019-05-18T22:29:46.415Z,60.70
2019-05-18T22:32:15.389Z,60.90
2019-05-18T22:34:44.474Z,61.00
2019-05-18T22:37:13.536Z,61.10
2019-05-18T22:39:42.603Z,61.40
2019-05-18T22:42:11.637Z,61.50
2019-05-18T22:44:40.676Z,61.60
2019-05-18T22:47:09.672Z,61.70
2019-05-18T22:49:38.741Z,61.80
2019-05-18T22:52:07.807Z,61.90
2019-05-18T22:54:36.779Z,62.00
2019-05-18T22:57:05.851Z,62.20
2019-05-18T22:59:35.009Z,62.20
2019-05-18T23:02:04.109Z,62.40
2019-05-18T23:04:33.268Z,62.40
2019-05-18T23:07:02.587Z,62.50
2019-05-18T23:09:31.720Z,62.60
2019-05-18T23:12:00.753Z,62.70
2019-05-18T23:14:29.775Z,63.00
2019-05-18T23:16:58.877Z,62.90
2019-05-18T23:19:27.945Z,63.00
2019-05-18T23:21:57.029Z,63.10
2019-05-18T23:24:26.074Z,63.20
2019-05-18T23:26:55.091Z,63.30
2019-05-18T23:29:24.069Z,63.50
2019-05-18T23:31:53.110Z,63.70
2019-05-18T23:34:22.198Z,63.80
2019-05-18T23:36:51.263Z,63.90
2019-05-18T23:39:20.345Z,64.10
2019-05-18T23:41:49.416Z,64.40
2019-05-18T23:44:18.519Z,64.50
2019-05-18T23:46:50.410Z,64.60
2019-05-18T23:49:19.458Z,64.70
2019-05-18T23:51:51.586Z,64.90
2019-05-18T23:54:20.631Z,65.00
2019-05-18T23:56:49.669Z,65.30
2019-05-18T23:59:18.738Z,65.30
